Laurinburg, North Carolina
Current Conditions -  °F | °C
As of 12:52 PM on Thursday 27 Nov 2014 (Local Time) from KMEB Reporting Station
Overcast Overcast  
Wind Chill: 50°   Ceiling: 3200
Heat Index: 50°   Visibility: 10mi
Dew Point: 37°   Wind: 17mph
Humidity: 61%   Direction: 330°NNW
Pressure: 30.07"   Gusts: 26mph
Location:  34.77°N, 79.46°W
Report Text: KMEB 271752Z AUTO 33015G23KT 10SM BKN032 BKN040 OVC060 10/03 A3007 RMK AO2 SLP181 T01000028 10117 20033 51007
Loading
Personal Weather Stations






























Interactive Weather Map New forecast layout! Learn more

10-Day Weather Forecast

Advertisements
Track Severe Weather on mobile